Vosselaar, Belgium
Current Conditions -  °F | °C
As of 11:36 AM on Monday 26 Jan 2015 (Local Time) from EHGR Reporting Station
Haze Haze  
Wind Chill: 39°   Ceiling: 100
Heat Index: 43°   Visibility: 0.62mi
Dew Point: 43°   Wind: 6mph
Humidity: 100%   Direction: 220°SW
Pressure: 30.09"   Gusts: NA
Location:  51.31°N, 4.89°E
Report Text: EHGR 261036Z AUTO 22005KT 1000 R28/0900 BR OVC001 06/06 Q1019 RED 22008KT 3000 BR BKN003 OVC004 TEMPO 0500 FG SCT001 BKN002 OVC003
Loading
Personal Weather Stations






























Interactive Weather Map New forecast layout! Learn more

10-Day Weather Forecast

Advertisements
Track Severe Weather on mobile